Disclaimer

Please do not use the information listed here in-flight or in-navigation, as they are not provided to us by the airports but are provided by volunteers, so they might be outdated.

Search


Regions


Airport information page

Radio informations:
Aerodrome flight information system (AFIS) - 121.9 MHz

Airport informations:
Latitude: 37° 22' 59.78" N
Longitude: 055° 27' 07.23" E
Elevation: 425 feet - 130 meters
Operating hours: Remarks
Operating agency: Civil government, landing fees and diplomatic clearance may be required
Timezone: UTC+3:30
Fuel: N/A

Runway information:
10/28 - 7277 x 92 feet< - >2218 x 28 meters

Recent METARs:
OINE 180600Z 00000KT 7000 BKN035 OVC100 14/10 Q1024
OINE 180700Z 00000KT 7000 SCT035 OVC100 16/11 Q1023
OINE 180800Z 03004KT 9999 FEW035 BKN200 20/09 Q1021

Airport on the map: